createdAt,value
2023-03-07T00:00:45.766Z,4.50
2023-03-07T00:04:46.687Z,4.40
2023-03-07T00:08:52.804Z,3.70
2023-03-07T00:12:53.909Z,3.70
2023-03-07T00:16:54.882Z,4.10
2023-03-07T00:20:58.565Z,3.70
2023-03-07T00:24:59.535Z,3.50
2023-03-07T00:29:00.505Z,4.30
2023-03-07T00:33:01.416Z,4.50
2023-03-07T00:37:02.530Z,3.80
2023-03-07T00:41:09.355Z,4.30
2023-03-07T00:45:10.719Z,3.40
2023-03-07T00:49:11.834Z,3.50
2023-03-07T00:53:13.112Z,3.30
2023-03-07T00:57:14.281Z,4.00
2023-03-07T01:01:18.829Z,4.00
2023-03-07T01:05:19.920Z,3.20
2023-03-07T01:09:21.127Z,4.00
2023-03-07T01:13:22.064Z,3.20
2023-03-07T01:17:23.184Z,3.30
2023-03-07T01:21:27.302Z,3.30
2023-03-07T01:25:28.499Z,4.10
2023-03-07T01:29:29.528Z,3.70
2023-03-07T01:33:30.451Z,2.90
2023-03-07T01:37:31.629Z,3.40
2023-03-07T01:41:35.824Z,3.30
2023-03-07T01:45:40.628Z,3.40
2023-03-07T01:49:45.199Z,3.80
2023-03-07T01:53:48.579Z,4.00
2023-03-07T01:57:51.154Z,3.50
2023-03-07T02:01:52.089Z,3.90
2023-03-07T02:05:56.601Z,3.40
2023-03-07T02:09:57.996Z,3.30
2023-03-07T02:13:58.940Z,3.50
2023-03-07T02:18:00.135Z,3.60
2023-03-07T02:22:10.726Z,3.00
2023-03-07T02:26:24.577Z,3.70
2023-03-07T02:30:26.097Z,3.70
2023-03-07T02:34:29.501Z,3.50
2023-03-07T02:38:35.955Z,3.70
2023-03-07T02:42:40.407Z,3.80
2023-03-07T02:46:41.568Z,3.70
2023-03-07T02:50:42.528Z,4.00
2023-03-07T02:54:43.667Z,3.60
2023-03-07T02:58:44.809Z,3.20
2023-03-07T03:02:45.881Z,3.80
2023-03-07T03:06:47.063Z,4.10
2023-03-07T03:10:53.497Z,3.30
2023-03-07T03:14:54.626Z,4.60
2023-03-07T03:18:55.664Z,4.00
2023-03-07T03:22:56.787Z,3.80
2023-03-07T03:26:58.006Z,4.10
2023-03-07T03:31:01.060Z,3.40
2023-03-07T03:35:02.152Z,4.10
2023-03-07T03:39:03.553Z,4.60
2023-03-07T03:43:04.512Z,3.60
2023-03-07T03:47:05.662Z,3.40
2023-03-07T03:51:10.344Z,3.60
2023-03-07T03:55:11.732Z,3.40
2023-03-07T03:59:12.792Z,4.10
2023-03-07T04:03:13.904Z,4.20
2023-03-07T04:07:14.885Z,4.20
2023-03-07T04:11:16.218Z,4.50
2023-03-07T04:15:17.316Z,4.20
2023-03-07T04:19:18.498Z,4.20
2023-03-07T04:23:21.381Z,4.80
2023-03-07T04:27:22.503Z,4.20
2023-03-07T04:31:25.826Z,4.70
2023-03-07T04:35:26.860Z,4.40
2023-03-07T04:39:27.968Z,4.80
2023-03-07T04:43:29.183Z,4.60
2023-03-07T04:47:30.311Z,4.70
2023-03-07T04:51:31.378Z,4.30
2023-03-07T04:55:32.484Z,4.20
2023-03-07T04:59:35.712Z,4.20
2023-03-07T05:03:36.892Z,3.90
2023-03-07T05:07:38.008Z,4.00
2023-03-07T05:11:39.271Z,4.20
2023-03-07T05:15:40.581Z,4.20
2023-03-07T05:19:42.152Z,4.50
2023-03-07T05:23:43.124Z,4.30
2023-03-07T05:27:44.429Z,4.40
2023-03-07T05:31:45.402Z,4.60
2023-03-07T05:35:47.482Z,4.40
2023-03-07T05:39:48.419Z,4.60
2023-03-07T05:43:49.435Z,4.60
2023-03-07T05:47:50.407Z,4.30
2023-03-07T05:51:51.573Z,5.10
2023-03-07T05:55:52.556Z,4.40
2023-03-07T05:59:53.691Z,4.40
2023-03-07T06:03:54.708Z,4.90
2023-03-07T06:07:56.676Z,4.80
2023-03-07T06:11:57.740Z,4.70
2023-03-07T06:15:58.841Z,4.30
2023-03-07T06:19:59.981Z,4.70
2023-03-07T06:24:01.055Z,4.30
2023-03-07T06:28:02.110Z,4.40
2023-03-07T06:32:04.225Z,4.60
2023-03-07T06:36:10.917Z,4.20
2023-03-07T06:40:12.316Z,4.80
2023-03-07T06:44:14.551Z,5.00
2023-03-07T06:48:17.301Z,4.60
2023-03-07T06:52:18.780Z,4.70
2023-03-07T06:56:19.894Z,4.40
2023-03-07T07:00:22.007Z,4.30
2023-03-07T07:04:23.184Z,4.10
2023-03-07T07:08:24.294Z,4.10
2023-03-07T07:12:25.259Z,4.00
2023-03-07T07:16:26.722Z,4.00
2023-03-07T07:20:28.047Z,4.10
2023-03-07T07:24:29.449Z,4.50
2023-03-07T07:28:30.726Z,4.60
2023-03-07T07:32:32.166Z,4.90
2023-03-07T07:36:33.676Z,4.70
2023-03-07T07:40:34.832Z,4.70
2023-03-07T07:44:36.041Z,4.40
2023-03-07T07:48:37.178Z,5.10
2023-03-07T07:52:38.141Z,4.50
2023-03-07T07:56:40.666Z,4.90
2023-03-07T08:00:42.004Z,5.10
2023-03-07T08:04:43.113Z,5.00
2023-03-07T08:08:44.203Z,4.80
2023-03-07T08:12:50.198Z,5.00
2023-03-07T08:16:51.774Z,5.10
2023-03-07T08:20:52.804Z,4.60
2023-03-07T08:24:53.922Z,5.20
2023-03-07T08:28:55.427Z,5.70
2023-03-07T08:32:57.003Z,5.30
2023-03-07T08:36:57.981Z,5.40
2023-03-07T08:41:02.185Z,5.40
2023-03-07T08:45:03.940Z,6.50
2023-03-07T08:49:05.093Z,6.20
2023-03-07T08:53:06.391Z,6.70
2023-03-07T08:57:07.511Z,6.40
2023-03-07T09:01:09.493Z,6.60
2023-03-07T09:05:10.608Z,7.00
2023-03-07T09:09:11.617Z,7.40
2023-03-07T09:13:13.402Z,7.30
2023-03-07T09:17:15.464Z,6.30
2023-03-07T09:21:16.865Z,6.30
2023-03-07T09:25:18.239Z,7.30
2023-03-07T09:29:19.213Z,6.40
2023-03-07T09:33:20.365Z,7.10
2023-03-07T09:37:21.507Z,6.80
2023-03-07T09:41:53.734Z,6.90
2023-03-07T09:46:01.369Z,6.60
2023-03-07T09:50:05.165Z,7.10
2023-03-07T09:54:13.120Z,6.90
2023-03-07T09:58:17.463Z,7.00
2023-03-07T10:02:25.352Z,6.70
2023-03-07T10:06:40.832Z,6.70
2023-03-07T10:10:48.767Z,6.70
2023-03-07T10:14:56.457Z,6.90
2023-03-07T10:19:25.360Z,7.00
2023-03-07T10:23:40.786Z,7.00
2023-03-07T10:27:45.053Z,6.90
2023-03-07T10:31:52.764Z,6.70
2023-03-07T10:36:00.435Z,6.00
2023-03-07T10:40:03.827Z,7.00
2023-03-07T10:44:04.461Z,6.20
2023-03-07T10:48:09.315Z,7.20
2023-03-07T10:52:23.109Z,7.20
2023-03-07T10:56:24.287Z,7.50
2023-03-07T11:00:26.118Z,7.30
2023-03-07T11:04:29.780Z,7.20
2023-03-07T11:08:33.656Z,7.80
2023-03-07T11:12:38.488Z,7.60
2023-03-07T11:16:42.624Z,8.00
2023-03-07T11:20:50.415Z,7.50
2023-03-07T11:24:58.162Z,7.50
2023-03-07T11:29:13.762Z,7.60
2023-03-07T11:33:23.790Z,7.90
2023-03-07T11:37:43.623Z,8.50
2023-03-07T11:41:58.186Z,8.40
2023-03-07T11:46:08.725Z,7.90
2023-03-07T11:50:17.060Z,8.00
2023-03-07T11:54:31.193Z,7.90
2023-03-07T11:59:01.249Z,8.20
2023-03-07T12:03:28.709Z,8.00
2023-03-07T12:07:42.468Z,7.70
2023-03-07T12:12:11.533Z,8.20
2023-03-07T12:16:28.239Z,8.30
2023-03-07T12:20:47.639Z,7.90
2023-03-07T12:25:01.539Z,6.90
2023-03-07T12:29:35.114Z,7.20
2023-03-07T12:33:54.320Z,7.40
2023-03-07T12:38:01.940Z,8.30
2023-03-07T12:42:06.920Z,8.00
2023-03-07T12:46:26.568Z,8.00
2023-03-07T12:50:40.894Z,7.60
2023-03-07T12:54:45.712Z,8.00
2023-03-07T12:59:14.828Z,8.00
2023-03-07T13:03:25.889Z,8.80
2023-03-07T13:07:29.259Z,8.80
2023-03-07T13:11:35.713Z,8.50
2023-03-07T13:15:40.842Z,7.90
2023-03-07T13:19:43.288Z,7.90
2023-03-07T13:23:44.419Z,8.40
2023-03-07T13:27:55.231Z,8.20
2023-03-07T13:31:56.470Z,7.80
2023-03-07T13:35:59.246Z,7.80
2023-03-07T13:40:05.580Z,8.80
2023-03-07T13:44:10.383Z,7.90
2023-03-07T13:48:20.971Z,7.90
2023-03-07T13:52:26.576Z,7.80
2023-03-07T13:56:30.417Z,8.40
2023-03-07T14:00:35.364Z,8.20
2023-03-07T14:04:52.944Z,8.10
2023-03-07T14:08:54.532Z,7.40
2023-03-07T14:13:18.944Z,7.40
2023-03-07T14:17:32.940Z,7.50
2023-03-07T14:21:59.057Z,7.50
2023-03-07T14:26:22.432Z,7.50
2023-03-07T14:30:26.268Z,7.90
2023-03-07T14:34:33.325Z,7.30
2023-03-07T14:38:34.286Z,7.40
2023-03-07T14:42:47.939Z,6.60
2023-03-07T14:47:01.813Z,6.70
2023-03-07T14:51:15.674Z,6.40
2023-03-07T14:55:23.928Z,7.70
2023-03-07T14:59:29.521Z,7.50
2023-03-07T15:03:29.188Z,7.50
2023-03-07T15:07:30.663Z,7.30
2023-03-07T15:11:39.794Z,7.40
2023-03-07T15:15:44.789Z,7.60
2023-03-07T15:20:05.543Z,7.50
2023-03-07T15:24:19.374Z,8.30
2023-03-07T15:28:27.204Z,7.70
2023-03-07T15:32:40.270Z,7.70
2023-03-07T15:36:41.347Z,7.20
2023-03-07T15:40:42.745Z,7.70
2023-03-07T15:44:47.639Z,7.40
2023-03-07T15:48:52.293Z,6.80
2023-03-07T15:52:57.592Z,7.50
2023-03-07T15:57:05.422Z,7.60
2023-03-07T16:01:24.708Z,6.40
2023-03-07T16:05:28.730Z,7.00
2023-03-07T16:09:30.213Z,7.20
2023-03-07T16:13:34.663Z,6.90
2023-03-07T16:17:37.358Z,6.90
2023-03-07T16:21:38.802Z,7.40
2023-03-07T16:25:42.226Z,7.40
2023-03-07T16:29:44.155Z,7.00
2023-03-07T16:33:46.724Z,6.90
2023-03-07T16:37:47.984Z,6.90
2023-03-07T16:41:49.514Z,7.00
2023-03-07T16:45:50.904Z,7.00
2023-03-07T16:49:52.096Z,7.20
2023-03-07T16:53:53.309Z,7.50
2023-03-07T16:57:57.341Z,7.20
2023-03-07T17:01:58.695Z,7.30
2023-03-07T17:06:00.313Z,7.40
2023-03-07T17:10:01.494Z,6.70
2023-03-07T17:14:05.779Z,7.40
2023-03-07T17:18:07.088Z,7.00
2023-03-07T17:22:09.237Z,7.30
2023-03-07T17:26:17.170Z,7.00
2023-03-07T17:30:23.803Z,6.80
2023-03-07T17:34:28.075Z,6.80
2023-03-07T17:38:29.039Z,6.90
2023-03-07T17:42:30.044Z,6.40
2023-03-07T17:46:31.089Z,7.10
2023-03-07T17:50:32.195Z,6.50
2023-03-07T17:54:33.670Z,6.20
2023-03-07T17:58:34.870Z,6.20
2023-03-07T18:02:36.744Z,5.20
2023-03-07T18:06:40.552Z,5.60
2023-03-07T18:10:41.255Z,5.70
2023-03-07T18:14:42.423Z,6.50
2023-03-07T18:18:58.323Z,5.70
2023-03-07T18:22:47.309Z,5.50
2023-03-07T18:26:50.194Z,5.70
2023-03-07T18:31:00.066Z,5.60
2023-03-07T18:35:01.429Z,5.40
2023-03-07T18:39:03.327Z,5.70
2023-03-07T18:43:04.465Z,6.10
2023-03-07T18:47:06.131Z,5.40
2023-03-07T18:51:10.327Z,5.60
2023-03-07T18:55:11.616Z,6.00
2023-03-07T18:59:12.959Z,6.20
2023-03-07T19:03:16.017Z,5.60
2023-03-07T19:07:16.948Z,5.60
2023-03-07T19:11:19.000Z,5.30
2023-03-07T19:15:20.338Z,5.10
2023-03-07T19:19:21.649Z,5.70
2023-03-07T19:23:23.412Z,5.50
2023-03-07T19:27:24.897Z,5.60
2023-03-07T19:31:29.215Z,5.40
2023-03-07T19:35:30.694Z,6.10
2023-03-07T19:39:31.803Z,5.50
2023-03-07T19:43:33.187Z,5.80
2023-03-07T19:47:34.263Z,5.80
2023-03-07T19:51:35.609Z,5.30
2023-03-07T19:55:36.909Z,5.00
2023-03-07T19:59:37.977Z,5.30
2023-03-07T20:03:39.175Z,5.10
2023-03-07T20:07:40.345Z,5.10
2023-03-07T20:11:45.246Z,5.10
2023-03-07T20:15:54.043Z,5.80
2023-03-07T20:19:57.256Z,6.10
2023-03-07T20:23:59.248Z,5.40
2023-03-07T20:28:00.886Z,5.50
2023-03-07T20:32:02.230Z,5.80
2023-03-07T20:36:10.331Z,5.20
2023-03-07T20:40:12.516Z,5.10
2023-03-07T20:44:15.179Z,4.70
2023-03-07T20:48:16.512Z,5.40
2023-03-07T20:52:17.657Z,4.80
2023-03-07T20:56:20.196Z,4.90
2023-03-07T21:00:22.533Z,4.80
2023-03-07T21:04:23.930Z,5.00
2023-03-07T21:08:26.059Z,4.70
2023-03-07T21:12:27.274Z,4.60
2023-03-07T21:16:30.423Z,5.00
2023-03-07T21:20:31.437Z,5.10
2023-03-07T21:24:32.624Z,5.00
2023-03-07T21:28:35.321Z,4.90
2023-03-07T21:32:36.503Z,4.70
2023-03-07T21:36:37.592Z,4.10
2023-03-07T21:40:40.990Z,3.90
2023-03-07T21:44:42.332Z,4.30
2023-03-07T21:48:43.566Z,4.60
2023-03-07T21:52:45.574Z,4.80
2023-03-07T21:56:47.084Z,4.50
2023-03-07T22:00:48.835Z,4.90
2023-03-07T22:04:50.005Z,5.10
2023-03-07T22:08:51.419Z,4.10
2023-03-07T22:12:52.581Z,4.00
2023-03-07T22:16:53.843Z,3.80
2023-03-07T22:20:55.259Z,3.60
2023-03-07T22:24:56.391Z,2.80
2023-03-07T22:28:58.319Z,3.20
2023-03-07T22:32:59.784Z,3.30
2023-03-07T22:37:01.095Z,3.20
2023-03-07T22:41:04.278Z,4.50
2023-03-07T22:45:06.648Z,3.80
2023-03-07T22:49:10.190Z,3.50
2023-03-07T22:53:11.257Z,4.70
2023-03-07T22:57:12.405Z,3.70
2023-03-07T23:01:22.124Z,4.30
2023-03-07T23:05:23.688Z,4.20
2023-03-07T23:09:24.825Z,3.90
2023-03-07T23:13:25.935Z,3.70
2023-03-07T23:17:26.949Z,3.20
2023-03-07T23:21:30.107Z,3.50
2023-03-07T23:25:32.506Z,3.20
2023-03-07T23:29:33.642Z,3.80
2023-03-07T23:33:34.814Z,3.60
2023-03-07T23:37:35.830Z,3.80
2023-03-07T23:41:37.087Z,3.30
2023-03-07T23:45:38.469Z,3.30
2023-03-07T23:49:39.624Z,4.00
2023-03-07T23:53:40.874Z,4.00
2023-03-07T23:57:42.053Z,4.30
